Time;durP1;ratioP1;P1;durP2;ratioP2;P2;SDS_P1;SDS_P2;PMS_P1;PMS_P2;Temp;Humidity;BMP_temperature;BMP_pressure;BME280_temperature;BME280_humidity;BME280_pressure;Samples;Min_cycle;Max_cycle;Signal;HPM_P1;HPM_P2
2021/01/12 10:43:46;;;;;;;64.47;29.40;;;;;;;1.28;53.95;97341.44;1729089;81;21178;-74
2021/01/12 10:46:15;;;;;;;32.90;16.73;;;;;;;1.41;59.66;97335.31;1729072;83;21298;-73
2021/01/12 10:48:41;;;;;;;71.65;28.47;;;;;;;1.49;59.13;97329.31;1729049;83;21531;-73
2021/01/12 10:51:08;;;;;;;56.28;25.00;;;;;;;1.53;59.66;97317.09;1729082;83;21090;-73
2021/01/12 10:53:35;;;;;;;30.23;14.28;;;;;;;1.51;57.80;97311.19;1729044;83;21530;-73
2021/01/12 10:56:01;;;;;;;50.78;24.67;;;;;;;1.57;58.65;97313.72;1729129;83;21380;-73
2021/01/12 10:58:28;;;;;;;60.50;32.95;;;;;;;1.67;60.68;97317.90;1729072;83;21878;-73
2021/01/12 11:00:55;;;;;;;69.67;37.70;;;;;;;1.77;60.97;97306.58;1729119;83;21166;-73
2021/01/12 11:03:21;;;;;;;50.50;26.20;;;;;;;1.83;60.30;97304.30;1729127;83;21619;-73
2021/01/12 11:05:53;;;;;;;29.95;14.93;;;;;;;1.87;60.69;97305.95;1729108;83;21043;-73
2021/01/12 11:08:20;;;;;;;36.98;15.75;;;;;;;1.69;54.69;97306.97;1729066;82;21281;-73
2021/01/12 11:10:46;;;;;;;34.15;15.45;;;;;;;1.52;54.45;97304.27;1729091;83;21094;-73
2021/01/12 11:13:12;;;;;;;32.08;16.05;;;;;;;1.62;58.54;97300.47;1729081;83;21098;-73
2021/01/12 11:15:44;;;;;;;29.52;14.23;;;;;;;1.58;59.89;97299.31;1729012;83;21149;-73
2021/01/12 11:18:11;;;;;;;24.67;12.65;;;;;;;1.50;57.62;97298.36;1729156;83;21069;-73
2021/01/12 11:20:40;;;;;;;25.43;13.28;;;;;;;1.50;58.99;97292.21;1729164;83;21416;-73
2021/01/12 11:23:07;;;;;;;33.28;13.90;;;;;;;1.49;59.53;97285.25;1729233;83;26864;-73
2021/01/12 11:25:33;;;;;;;36.90;16.87;;;;;;;1.41;58.52;97277.91;1728947;83;21125;-73
2021/01/12 11:27:59;;;;;;;22.62;11.65;;;;;;;1.34;57.06;97276.42;1702385;83;21051;-73
2021/01/12 11:30:26;;;;;;;20.20;10.48;;;;;;;1.26;56.04;97281.62;1728980;83;21110;-73
2021/01/12 11:32:52;;;;;;;32.93;14.75;;;;;;;1.36;56.79;97272.98;1729020;83;21507;-73
2021/01/12 11:35:19;;;;;;;28.30;15.75;;;;;;;1.43;59.12;97256.83;1729010;83;22288;-73
2021/01/12 11:37:48;;;;;;;33.18;20.08;;;;;;;1.45;59.82;97246.19;1729062;83;21567;-73
2021/01/12 11:40:14;;;;;;;31.87;12.43;;;;;;;1.40;58.89;97230.91;1728987;83;21118;-74
2021/01/12 11:42:40;;;;;;;37.35;16.10;;;;;;;1.52;59.47;97228.69;1728985;83;21054;-73
2021/01/12 11:45:08;;;;;;;28.70;13.93;;;;;;;1.55;59.25;97222.89;1728986;83;21043;-73
2021/01/12 11:47:35;;;;;;;28.27;10.82;;;;;;;1.59;58.55;97216.00;1729111;83;21352;-73
2021/01/12 11:50:07;;;;;;;25.45;13.03;;;;;;;1.65;57.86;97209.17;1728987;83;21142;-73
2021/01/12 11:52:29;;;;;;;32.58;14.05;;;;;;;1.63;57.19;97195.78;1728462;83;21062;-73
2021/01/12 11:54:56;;;;;;;38.23;18.20;;;;;;;1.75;57.24;97201.03;1729027;83;21457;-73
2021/01/12 11:57:22;;;;;;;36.60;19.42;;;;;;;1.74;57.09;97210.11;1729109;83;21155;-73
2021/01/12 11:59:48;;;;;;;35.30;16.10;;;;;;;1.74;57.77;97188.73;1729089;83;21419;-73
2021/01/12 12:02:14;;;;;;;28.05;13.03;;;;;;;1.83;57.33;97177.39;1728955;83;21590;-73
2021/01/12 12:04:41;;;;;;;27.70;15.72;;;;;;;1.91;57.25;97195.69;1729089;83;21122;-73
2021/01/12 12:07:07;;;;;;;46.02;18.92;;;;;;;1.86;57.62;97182.77;1728965;83;21178;-73
2021/01/12 12:09:33;;;;;;;39.80;20.30;;;;;;;1.73;56.22;97171.09;1729019;83;21114;-73
2021/01/12 12:12:03;;;;;;;26.70;12.93;;;;;;;1.82;58.07;97181.13;1729052;83;21974;-73
2021/01/12 12:14:30;;;;;;;22.95;11.65;;;;;;;1.92;57.58;97179.13;1728938;83;21427;-74
2021/01/12 12:16:57;;;;;;;32.48;15.50;;;;;;;1.98;58.06;97173.63;1729031;83;21174;-74
2021/01/12 12:19:26;;;;;;;25.05;12.35;;;;;;;2.06;57.83;97172.92;1729037;83;21598;-74
2021/01/12 12:21:57;;;;;;;65.25;23.77;;;;;;;2.01;56.47;97166.16;1729254;83;21130;-74
2021/01/12 12:24:28;;;;;;;83.12;24.85;;;;;;;2.02;57.10;97163.23;1729028;83;22049;-73
2021/01/12 12:26:58;;;;;;;46.25;19.73;;;;;;;2.03;57.41;97148.81;1728936;83;21519;-73
2021/01/12 12:29:24;;;;;;;69.77;23.80;;;;;;;2.06;57.75;97148.34;1728919;83;21197;-73
2021/01/12 12:31:53;;;;;;;166.05;48.68;;;;;;;2.08;58.06;97138.74;1728987;83;21186;-73
2021/01/12 12:34:20;;;;;;;141.43;52.03;;;;;;;2.09;58.37;97138.48;1729005;83;21427;-73
2021/01/12 12:36:46;;;;;;;95.20;40.23;;;;;;;2.05;58.64;97132.53;1728975;83;21213;-73
2021/01/12 12:39:12;;;;;;;71.07;31.60;;;;;;;2.02;58.15;97116.47;1728844;83;21553;-73
2021/01/12 12:41:39;;;;;;;42.98;18.45;;;;;;;2.04;59.20;97119.70;1729081;83;21212;-73
2021/01/12 12:44:05;;;;;;;53.63;21.82;;;;;;;2.07;59.21;97119.23;1729073;83;22152;-73
2021/01/12 12:46:33;;;;;;;45.55;19.73;;;;;;;2.09;59.35;97118.97;1728668;83;38087;-73
2021/01/12 12:48:59;;;;;;;39.50;18.80;;;;;;;2.08;58.33;97112.02;1728966;83;21183;-73
2021/01/12 12:51:26;;;;;;;28.30;14.50;;;;;;;2.10;59.33;97117.91;1728894;83;21547;-73
2021/01/12 12:53:55;;;;;;;25.50;9.65;;;;;;;2.09;57.55;97106.95;1728969;83;21094;-73
2021/01/12 12:56:20;;;;;;;22.75;10.82;;;;;;;2.08;58.51;97107.48;1728804;83;21087;-73
2021/01/12 12:58:47;;;;;;;19.48;8.95;;;;;;;2.05;58.44;97103.13;1729053;83;21527;-73
2021/01/12 13:01:14;;;;;;;63.90;33.25;;;;;;;2.04;58.44;97099.66;1729062;83;21196;-73
2021/01/12 13:03:41;;;;;;;21.65;11.48;;;;;;;2.00;58.57;97093.20;1728973;83;21046;-73
2021/01/12 13:06:08;;;;;;;24.80;10.15;;;;;;;2.03;58.81;97098.58;1728943;83;21082;-73
2021/01/12 13:08:34;;;;;;;57.83;22.65;;;;;;;2.02;58.48;97093.76;1729025;83;21130;-73
2021/01/12 13:11:03;;;;;;;39.00;14.68;;;;;;;2.12;58.98;97097.89;1729070;83;21164;-73
2021/01/12 13:13:29;;;;;;;22.82;7.70;;;;;;;2.06;55.90;97089.55;1729234;83;21505;-73
2021/01/12 13:15:56;;;;;;;17.37;6.85;;;;;;;2.15;57.25;97081.37;1728981;83;21075;-73
2021/01/12 13:18:25;;;;;;;59.00;32.67;;;;;;;2.19;57.40;97087.83;1728974;83;21099;-73
2021/01/12 13:20:52;;;;;;;74.03;36.68;;;;;;;2.21;57.86;97086.24;1729167;83;21176;-73
2021/01/12 13:23:18;;;;;;;44.15;20.45;;;;;;;2.20;57.46;97080.62;1728965;83;21059;-73
2021/01/12 13:25:46;;;;;;;47.10;20.00;;;;;;;2.18;56.31;97076.06;1729018;83;21207;-73
2021/01/12 13:28:13;;;;;;;29.00;12.10;;;;;;;2.15;56.65;97081.37;1728906;83;21102;-73
2021/01/12 13:30:43;;;;;;;41.30;17.65;;;;;;;2.14;56.82;97079.77;1728995;83;21067;-73
2021/01/12 13:33:09;;;;;;;39.23;16.17;;;;;;;2.12;55.42;97068.49;1729126;83;21118;-74
2021/01/12 13:35:35;;;;;;;39.53;18.52;;;;;;;2.09;55.80;97069.53;1728985;83;21531;-73
2021/01/12 13:38:01;;;;;;;33.90;15.10;;;;;;;2.04;55.40;97058.77;1729061;83;21247;-73
2021/01/12 13:40:28;;;;;;;40.48;19.35;;;;;;;1.94;54.40;97063.45;1728965;83;21527;-73
2021/01/12 13:42:58;;;;;;;49.63;21.73;;;;;;;1.91;55.14;97066.10;1729063;83;21094;-73
2021/01/12 13:45:22;;;;;;;48.07;22.60;;;;;;;1.90;55.88;97067.16;1728790;83;21527;-73
2021/01/12 13:47:49;;;;;;;47.80;22.95;;;;;;;1.90;54.87;97061.81;1728971;83;21106;-73
2021/01/12 13:50:17;;;;;;;29.00;14.25;;;;;;;1.86;55.68;97066.02;1729046;83;21142;-73
2021/01/12 13:52:44;;;;;;;28.67;14.55;;;;;;;1.84;56.28;97060.66;1729311;83;21530;-73
2021/01/12 13:55:12;;;;;;;156.75;74.77;;;;;;;1.84;57.16;97066.00;1729107;83;21155;-73
2021/01/12 13:57:38;;;;;;;90.40;39.23;;;;;;;1.83;57.13;97065.19;1729072;83;21066;-73
2021/01/12 14:00:09;;;;;;;65.12;27.65;;;;;;;1.82;57.17;97059.57;1729143;83;21044;-73
2021/01/12 14:02:36;;;;;;;35.30;17.90;;;;;;;1.76;55.94;97047.20;1729259;83;21213;-73
2021/01/12 14:05:04;;;;;;;47.05;20.27;;;;;;;1.73;56.20;97048.23;1729171;83;21452;-73
2021/01/12 14:07:31;;;;;;;64.60;24.85;;;;;;;1.68;57.11;97050.28;1729218;83;21479;-73
2021/01/12 14:09:58;;;;;;;40.67;19.75;;;;;;;1.67;56.30;97041.47;1729191;83;21182;-73
2021/01/12 14:12:25;;;;;;;25.60;12.43;;;;;;;1.64;55.83;97035.83;1729100;83;21131;-73
2021/01/12 14:14:52;;;;;;;49.08;21.27;;;;;;;1.59;56.33;97032.55;1729209;83;21315;-73
2021/01/12 14:17:20;;;;;;;150.15;54.23;;;;;;;1.56;56.60;97024.23;1729124;83;21098;-73
2021/01/12 14:19:47;;;;;;;183.72;65.17;;;;;;;1.55;56.91;97017.28;1729348;83;21103;-73
2021/01/12 14:24:53;;;;;;;147.25;48.60;;;;;;;1.55;55.82;97014.60;1847651;75;22690;-72
2021/01/12 14:27:19;;;;;;;104.87;39.23;;;;;;;1.50;56.68;97014.52;1814926;79;21531;-72
2021/01/12 14:29:47;;;;;;;150.85;54.40;;;;;;;1.48;57.31;97018.78;1785967;80;21186;-72
2021/01/12 14:32:14;;;;;;;99.50;40.95;;;;;;;1.48;57.00;97012.10;1785775;79;20956;-72
2021/01/12 14:34:41;;;;;;;106.90;43.75;;;;;;;1.47;57.56;97005.16;1785903;79;21427;-72
2021/01/12 14:37:15;;;;;;;27.42;10.55;;;;;;;1.45;57.65;97005.90;1785864;79;21015;-72
2021/01/12 14:39:53;;;;;;;103.35;61.65;;;;;;;1.51;56.79;96993.44;1756054;80;21039;-73
2021/01/12 14:42:21;;;;;;;87.15;35.33;;;;;;;1.43;57.71;96987.19;1786118;79;22001;-74
2021/01/12 14:44:49;;;;;;;49.35;22.27;;;;;;;1.38;57.60;96991.42;1785787;80;20977;-74
2021/01/12 14:47:16;;;;;;;63.58;28.38;;;;;;;1.38;58.09;96987.41;1785877;79;21463;-74
2021/01/12 14:49:42;;;;;;;83.55;30.90;;;;;;;1.40;57.96;96981.30;1785833;80;21052;-74
2021/01/12 14:52:09;;;;;;;50.98;24.40;;;;;;;1.40;58.44;96977.28;1785880;79;21106;-74
2021/01/12 14:54:35;;;;;;;92.42;45.43;;;;;;;1.39;58.48;96973.01;1785799;80;21183;-74
2021/01/12 14:57:01;;;;;;;146.45;65.85;;;;;;;1.38;58.90;96971.39;1785798;80;21118;-74
2021/01/12 14:59:27;;;;;;;135.90;63.40;;;;;;;1.36;59.16;96973.48;1785775;79;21104;-74
2021/01/12 15:01:54;;;;;;;26.57;14.47;;;;;;;1.30;59.43;96985.69;1785861;80;21181;-74
2021/01/12 15:04:20;;;;;;;76.70;36.00;;;;;;;1.31;59.46;96990.78;1785879;79;21061;-74
2021/01/12 15:06:46;;;;;;;65.20;37.38;;;;;;;1.32;59.78;96990.25;1785963;80;21198;-74
2021/01/12 15:09:12;;;;;;;32.15;16.25;;;;;;;1.32;59.71;96984.91;1785740;79;21055;-74
2021/01/12 15:11:41;;;;;;;93.27;38.05;;;;;;;1.35;59.73;96980.41;1785920;80;21094;-74
2021/01/12 15:14:08;;;;;;;111.10;42.45;;;;;;;1.33;60.12;96984.66;1785969;79;21486;-73
2021/01/12 15:16:34;;;;;;;136.45;53.48;;;;;;;1.29;60.29;96976.07;1785978;80;21495;-72
2021/01/12 15:19:01;;;;;;;106.87;56.60;;;;;;;1.29;60.01;96978.21;1785887;79;21249;-72
2021/01/12 15:21:30;;;;;;;120.42;61.40;;;;;;;1.23;60.56;96971.17;1785778;80;21122;-72
2021/01/12 15:23:56;;;;;;;133.50;68.78;;;;;;;1.20;60.60;96964.17;1785748;79;21087;-73
2021/01/12 15:26:22;;;;;;;213.72;82.55;;;;;;;1.13;60.97;96966.50;1785804;80;21162;-73
2021/01/12 15:28:49;;;;;;;101.65;45.85;;;;;;;1.09;61.23;96957.89;1785797;79;21039;-73
2021/01/12 15:31:15;;;;;;;73.70;35.83;;;;;;;1.05;61.58;96953.58;1785860;80;21522;-73
2021/01/12 15:33:42;;;;;;;35.83;18.55;;;;;;;1.02;61.60;96948.71;1785697;79;21129;-73
2021/01/12 15:36:10;;;;;;;63.55;31.57;;;;;;;1.00;61.84;96954.02;1785294;80;21483;-73
2021/01/12 15:38:36;;;;;;;55.60;22.93;;;;;;;1.00;62.00;96948.16;1785339;79;21507;-73
2021/01/12 15:41:03;;;;;;;87.37;33.28;;;;;;;1.02;62.14;96951.91;1785288;80;21131;-73
2021/01/12 15:43:29;;;;;;;36.68;16.62;;;;;;;1.04;62.18;96957.30;1785211;79;21456;-73
2021/01/12 15:45:58;;;;;;;49.77;22.13;;;;;;;1.03;62.31;96955.69;1785319;80;21122;-73
2021/01/12 15:48:25;;;;;;;39.15;14.45;;;;;;;1.04;62.42;96951.16;1785204;79;21121;-73
2021/01/12 15:50:51;;;;;;;28.30;15.40;;;;;;;1.03;62.52;96945.02;1785359;80;21130;-73
2021/01/12 15:53:17;;;;;;;206.78;67.40;;;;;;;1.02;62.48;96942.04;1754669;80;21027;-73
2021/01/12 15:55:43;;;;;;;29.48;14.35;;;;;;;0.99;62.60;96935.87;1785262;80;21194;-73
2021/01/12 15:58:11;;;;;;;29.00;14.85;;;;;;;0.95;62.66;96937.42;1785145;79;21673;-73
2021/01/12 16:00:38;;;;;;;524.33;184.70;;;;;;;0.93;62.85;96938.17;1785268;80;21079;-73
2021/01/12 16:03:05;;;;;;;232.98;92.90;;;;;;;0.90;62.69;96936.53;1785161;79;21126;-73
2021/01/12 16:05:31;;;;;;;195.03;72.32;;;;;;;0.84;62.92;96928.97;1755262;80;21094;-73
2021/01/12 16:08:00;;;;;;;192.10;85.47;;;;;;;0.84;62.94;96932.97;1785221;79;21182;-73
2021/01/12 16:10:26;;;;;;;84.57;41.93;;;;;;;0.81;63.40;96941.47;1785338;80;21106;-73
2021/01/12 16:12:56;;;;;;;74.75;30.95;;;;;;;0.81;63.40;96941.47;1785314;79;21307;-73
2021/01/12 16:15:25;;;;;;;53.05;27.27;;;;;;;0.79;63.64;96939.58;1785213;80;21114;-74
2021/01/12 16:17:52;;;;;;;42.45;23.83;;;;;;;0.78;63.62;96940.63;1785397;79;21011;-73
2021/01/12 16:20:22;;;;;;;46.87;23.67;;;;;;;0.67;64.37;96944.17;1785449;80;21192;-73
2021/01/12 16:22:50;;;;;;;37.90;18.45;;;;;;;0.66;64.22;96942.03;1784292;79;21492;-74
2021/01/12 16:25:17;;;;;;;47.40;21.00;;;;;;;0.65;64.21;96937.75;1798545;79;21085;-73
2021/01/12 16:27:47;;;;;;;56.30;26.12;;;;;;;0.61;64.62;96941.97;1799739;78;21121;-73
2021/01/12 16:30:16;;;;;;;51.77;23.27;;;;;;;0.56;64.46;96940.01;1799394;79;21125;-73
2021/01/12 16:32:42;;;;;;;55.10;24.70;;;;;;;0.52;64.83;96944.22;1799919;78;22060;-73
2021/01/12 16:35:11;;;;;;;53.92;26.55;;;;;;;0.51;64.84;96944.44;1799696;79;21427;-73
2021/01/12 16:37:37;;;;;;;100.67;50.85;;;;;;;0.47;64.99;96949.46;1799757;78;21046;-73
2021/01/12 16:40:05;;;;;;;101.92;53.42;;;;;;;0.44;64.94;96947.81;1799820;79;21026;-73
2021/01/12 16:42:36;;;;;;;59.13;29.45;;;;;;;0.40;65.29;96950.13;1773345;79;21458;-73
2021/01/12 16:45:07;;;;;;;62.70;27.70;;;;;;;0.39;65.26;96943.19;1799741;79;21267;-74
2021/01/12 16:47:36;;;;;;;54.53;27.05;;;;;;;0.36;65.37;96941.02;1799688;78;21054;-74
2021/01/12 16:50:06;;;;;;;52.90;24.90;;;;;;;0.38;65.51;96947.43;1800066;79;21042;-73
2021/01/12 16:52:35;;;;;;;78.35;32.08;;;;;;;0.38;65.59;96946.10;1799714;78;21309;-73
2021/01/12 16:55:02;;;;;;;49.83;22.42;;;;;;;0.40;65.84;96953.32;1799736;79;21015;-74
2021/01/12 16:57:30;;;;;;;42.43;19.25;;;;;;;0.37;65.80;96949.81;1799722;78;21577;-74
2021/01/12 17:00:05;;;;;;;33.85;15.25;;;;;;;0.36;65.87;96949.02;1799759;79;21096;-74
2021/01/12 17:02:39;;;;;;;36.30;17.62;;;;;;;0.34;67.62;96951.61;1799742;78;21054;-74
2021/01/12 17:05:11;;;;;;;34.40;15.53;;;;;;;0.32;66.37;96949.19;1780747;80;21086;-74
2021/01/12 17:07:39;;;;;;;47.78;21.93;;;;;;;0.29;66.48;96947.02;1780797;79;21020;-74
2021/01/12 17:10:08;;;;;;;46.58;21.57;;;;;;;0.24;67.46;96945.58;1781035;80;22060;-74
2021/01/12 17:12:35;;;;;;;38.30;20.57;;;;;;;0.22;66.70;96951.69;1780826;79;21075;-74
2021/01/12 17:15:03;;;;;;;36.48;19.52;;;;;;;0.20;66.91;96952.45;1756559;80;21035;-74
2021/01/12 17:17:40;;;;;;;40.17;20.45;;;;;;;0.16;67.17;96945.45;1780932;79;21098;-74
2021/01/12 17:20:13;;;;;;;48.00;25.68;;;;;;;0.06;68.57;96951.92;1780783;80;21487;-73
2021/01/12 17:22:46;;;;;;;44.27;26.30;;;;;;;-0.03;69.53;96947.50;1780777;79;21200;-74
2021/01/12 17:25:14;;;;;;;35.28;16.23;;;;;;;-0.01;68.14;96948.07;1780579;80;21051;-74
2021/01/12 17:27:47;;;;;;;42.95;20.30;;;;;;;-0.02;68.30;96948.31;1780810;79;21048;-73
2021/01/12 17:30:16;;;;;;;41.13;19.67;;;;;;;-0.03;68.25;96948.03;1756527;80;21040;-74
2021/01/12 17:32:46;;;;;;;39.95;17.55;;;;;;;-0.09;69.25;96941.79;1780747;79;21593;-74
2021/01/12 17:35:14;;;;;;;150.53;73.83;;;;;;;-0.07;68.94;96944.23;1756694;80;21241;-74
2021/01/12 17:37:47;;;;;;;182.57;62.43;;;;;;;-0.07;69.37;96941.58;1780935;79;21436;-73
2021/01/12 17:40:15;;;;;;;145.55;62.08;;;;;;;-0.06;68.64;96941.33;1780831;80;21897;-74
2021/01/12 17:42:41;;;;;;;47.20;24.55;;;;;;;-0.05;69.10;96934.15;1780840;79;21380;-73
2021/01/12 17:45:08;;;;;;;68.35;33.70;;;;;;;-0.03;68.60;96933.38;1780754;80;21087;-74
2021/01/12 17:47:39;;;;;;;59.30;31.00;;;;;;;-0.04;68.79;96926.44;1780735;79;21187;-74
2021/01/12 17:50:08;;;;;;;81.37;32.78;;;;;;;-0.06;69.21;96921.88;1756394;80;21102;-73
2021/01/12 17:52:35;;;;;;;118.53;57.43;;;;;;;-0.04;69.15;96922.45;1780743;79;21455;-73
2021/01/12 17:55:04;;;;;;;68.40;33.73;;;;;;;-0.10;69.22;96922.86;1762239;81;21429;-73
2021/01/12 17:57:31;;;;;;;136.88;53.05;;;;;;;-0.10;69.27;96922.86;1780730;79;21043;-74
2021/01/12 17:59:57;;;;;;;74.95;33.20;;;;;;;-0.10;69.32;96914.87;1762161;81;21966;-74
2021/01/12 18:02:28;;;;;;;80.65;33.85;;;;;;;-0.11;69.38;96915.12;1749755;81;21141;-74
2021/01/12 18:04:54;;;;;;;87.30;33.30;;;;;;;-0.13;69.65;96918.02;1757085;80;21522;-73
2021/01/12 18:07:25;;;;;;;52.53;24.10;;;;;;;-0.15;69.92;96909.47;1780717;79;21138;-73
2021/01/12 18:09:58;;;;;;;105.75;41.00;;;;;;;-0.14;69.46;96911.09;1780874;80;21408;-73
2021/01/12 18:12:25;;;;;;;48.13;23.67;;;;;;;-0.13;69.56;96913.22;1780731;79;22097;-73
2021/01/12 18:14:59;;;;;;;50.60;23.20;;;;;;;-0.09;69.61;96917.02;1762181;81;21045;-74
2021/01/12 18:17:26;;;;;;;44.08;18.60;;;;;;;-0.13;71.37;96918.55;1780778;79;21253;-73
2021/01/12 18:19:53;;;;;;;54.95;24.23;;;;;;;-0.15;71.16;96926.78;1780800;80;21035;-73
2021/01/12 18:22:19;;;;;;;62.62;26.55;;;;;;;-0.14;70.76;96920.93;1780790;79;21090;-72
2021/01/12 18:24:47;;;;;;;49.63;24.32;;;;;;;-0.20;71.60;96912.03;1782538;78;21198;-73
2021/01/12 18:27:22;;;;;;;52.53;23.27;;;;;;;-0.20;71.13;96914.69;1785148;79;21091;-73
2021/01/12 18:29:51;;;;;;;62.20;25.77;;;;;;;-0.20;71.27;96917.36;1785132;80;21495;-73
2021/01/12 18:32:20;;;;;;;117.25;47.98;;;;;;;-0.23;71.67;96914.37;1785188;79;21109;-73
2021/01/12 18:34:46;;;;;;;119.90;56.30;;;;;;;-0.27;72.29;96915.35;1785358;80;21490;-74
2021/01/12 18:37:16;;;;;;;132.93;69.87;;;;;;;-0.26;71.89;96916.16;1785090;79;21262;-74
2021/01/12 18:39:43;;;;;;;72.37;29.82;;;;;;;-0.26;72.42;96906.31;1783916;80;21038;-73
2021/01/12 18:42:12;;;;;;;60.38;29.20;;;;;;;-0.26;72.43;96904.98;1785095;79;21075;-74
2021/01/12 18:44:38;;;;;;;42.38;20.75;;;;;;;-0.23;72.17;96898.39;1785228;80;21107;-74
2021/01/12 18:47:15;;;;;;;47.20;23.00;;;;;;;-0.21;71.90;96909.09;1785259;80;21530;-73
2021/01/12 18:49:42;;;;;;;50.80;27.00;;;;;;;-0.14;71.89;96903.62;1785134;80;21092;-74
2021/01/12 18:52:11;;;;;;;27.45;14.28;;;;;;;-0.08;71.72;96910.67;1785136;79;21094;-74
2021/01/12 18:54:38;;;;;;;28.07;14.13;;;;;;;-0.10;71.88;96912.21;1785354;80;21087;-73
2021/01/12 18:57:05;;;;;;;42.60;19.70;;;;;;;-0.03;71.24;96904.89;1785129;80;21102;-73
2021/01/12 18:59:31;;;;;;;28.00;12.95;;;;;;;0.03;71.12;96906.33;1785190;80;21129;-73
2021/01/12 19:01:58;;;;;;;43.10;17.65;;;;;;;0.04;71.18;96909.27;1785126;80;21155;-73
2021/01/12 19:04:25;;;;;;;46.15;20.20;;;;;;;0.05;71.21;96907.69;1785011;79;21134;-73
2021/01/12 19:06:55;;;;;;;34.15;17.92;;;;;;;0.06;71.03;96906.64;1785201;80;21083;-73
2021/01/12 19:09:24;;;;;;;115.62;40.43;;;;;;;0.07;71.09;96904.26;1785061;79;21051;-74
2021/01/12 19:11:51;;;;;;;133.22;49.63;;;;;;;0.09;70.87;96906.70;1785421;80;21091;-74
2021/01/12 19:14:18;;;;;;;69.07;30.62;;;;;;;0.08;70.91;96905.06;1785306;79;21245;-74
2021/01/12 19:16:49;;;;;;;75.25;30.92;;;;;;;0.06;71.44;96901.84;1785217;80;21106;-74
2021/01/12 19:19:15;;;;;;;57.23;19.95;;;;;;;0.05;71.37;96904.22;1784177;79;21091;-74
2021/01/12 19:21:42;;;;;;;40.43;16.57;;;;;;;0.05;71.43;96898.89;1785264;80;21500;-74
2021/01/12 19:24:10;;;;;;;56.48;23.07;;;;;;;0.01;71.45;96894.59;1785221;79;21114;-73
2021/01/12 19:26:36;;;;;;;78.17;32.05;;;;;;;-0.02;72.30;96892.38;1785361;80;21321;-74
2021/01/12 19:29:03;;;;;;;95.30;26.77;;;;;;;-0.08;72.16;96893.36;1785146;79;21051;-74
2021/01/12 19:31:33;;;;;;;36.73;12.37;;;;;;;-0.05;72.20;96890.20;1785231;80;21082;-74
2021/01/12 19:34:05;;;;;;;108.20;43.95;;;;;;;0.01;72.56;96886.59;1785234;79;21033;-73
2021/01/12 19:36:35;;;;;;;281.55;80.72;;;;;;;-0.03;72.50;96887.58;1785370;80;21083;-73
2021/01/12 19:39:04;;;;;;;78.75;32.60;;;;;;;-0.07;72.41;96889.64;1785158;79;21189;-73
2021/01/12 19:41:32;;;;;;;175.42;58.38;;;;;;;-0.03;72.61;96886.77;1785376;80;21082;-73
2021/01/12 19:44:01;;;;;;;96.53;36.42;;;;;;;-0.01;72.34;96886.81;1785304;79;21129;-73
2021/01/12 19:46:30;;;;;;;168.45;51.08;;;;;;;0.01;72.45;96883.93;1785222;80;21146;-73
2021/01/12 19:48:58;;;;;;;45.40;19.40;;;;;;;0.05;72.26;96881.58;1785274;79;21063;-74
2021/01/12 19:51:24;;;;;;;28.90;13.55;;;;;;;0.04;72.24;96887.44;1785193;80;21191;-73
2021/01/12 19:53:50;;;;;;;74.90;33.02;;;;;;;0.05;72.18;96879.72;1785199;79;21479;-73
2021/01/12 19:56:17;;;;;;;50.95;19.82;;;;;;;0.07;72.03;96886.14;1785283;80;21486;-73
2021/01/12 19:58:46;;;;;;;42.00;21.45;;;;;;;0.16;71.87;96887.36;1785316;79;21023;-73
2021/01/12 20:01:11;;;;;;;61.65;24.70;;;;;;;0.08;72.03;96885.09;1785124;80;21396;-73
2021/01/12 20:03:42;;;;;;;52.90;23.12;;;;;;;0.07;72.21;96885.61;1785195;79;21475;-73
2021/01/12 20:06:08;;;;;;;46.35;17.77;;;;;;;0.08;72.02;96889.89;1785216;80;21515;-73
2021/01/12 20:08:34;;;;;;;41.40;16.17;;;;;;;0.10;72.01;96890.48;1785281;79;21539;-73
2021/01/12 20:11:01;;;;;;;54.10;17.95;;;;;;;0.13;71.95;96889.19;1785303;80;21428;-73
2021/01/12 20:13:28;;;;;;;45.52;18.37;;;;;;;0.16;71.76;96886.83;1785339;79;21487;-73
2021/01/12 20:15:54;;;;;;;29.98;13.28;;;;;;;0.16;71.71;96889.50;1785185;80;21261;-73
2021/01/12 20:18:24;;;;;;;28.32;13.45;;;;;;;0.21;71.53;96880.80;1785236;79;21035;-73
2021/01/12 20:23:31;;;;;;;31.07;13.55;;;;;;;0.22;71.53;96877.88;1827716;76;22646;-72
2021/01/12 20:26:00;;;;;;;33.10;13.95;;;;;;;0.20;71.47;96881.32;1785922;80;21030;-72
2021/01/12 20:28:29;;;;;;;23.38;11.05;;;;;;;0.21;71.49;96888.27;1786159;79;21160;-73
2021/01/12 20:30:58;;;;;;;45.55;16.97;;;;;;;0.20;72.28;96885.31;1785848;79;20960;-73
2021/01/12 20:33:26;;;;;;;37.83;15.78;;;;;;;0.13;72.53;96884.66;1785951;79;20988;-74
2021/01/12 20:35:58;;;;;;;65.52;25.92;;;;;;;0.12;72.95;96890.23;1786109;80;21494;-74
2021/01/12 20:38:31;;;;;;;33.73;13.28;;;;;;;0.12;72.71;96892.89;1785859;79;20936;-74
2021/01/12 20:41:03;;;;;;;24.80;11.55;;;;;;;0.08;73.74;96883.23;1785929;80;21196;-74
2021/01/12 20:43:32;;;;;;;33.35;15.53;;;;;;;-0.01;74.30;96892.13;1785877;79;20940;-73
2021/01/12 20:46:00;;;;;;;15.93;9.48;;;;;;;-0.03;74.30;96888.10;1784961;80;21070;-73
2021/01/12 20:48:27;;;;;;;16.48;8.13;;;;;;;-0.07;74.94;96886.45;1785782;79;21138;-73
2021/01/12 20:50:54;;;;;;;18.32;10.63;;;;;;;-0.12;75.72;96878.89;1785916;80;21126;-73
2021/01/12 20:53:22;;;;;;;16.77;9.18;;;;;;;-0.17;75.95;96883.61;1785899;79;21192;-73
2021/01/12 20:55:49;;;;;;;27.30;12.10;;;;;;;-0.19;76.47;96886.20;1786053;80;21491;-73
2021/01/12 20:58:15;;;;;;;22.15;11.25;;;;;;;-0.24;76.99;96875.48;1785872;79;21098;-73
2021/01/12 21:00:43;;;;;;;21.97;9.78;;;;;;;-0.25;76.80;96872.02;1785876;80;21134;-73
2021/01/12 21:03:12;;;;;;;19.55;8.68;;;;;;;-0.27;77.04;96872.75;1785770;79;21078;-73
2021/01/12 21:05:47;;;;;;;19.35;8.85;;;;;;;-0.32;77.36;96869.49;1785718;79;21487;-73
2021/01/12 21:08:17;;;;;;;33.35;14.95;;;;;;;-0.34;77.88;96872.92;1785731;79;21106;-74
2021/01/12 21:10:43;;;;;;;;;;;;;;;-0.34;77.14;96879.58;1788494;80;20972;-74
2021/01/12 21:13:10;;;;;;;14.00;7.45;;;;;;;-0.34;77.43;96879.58;1785907;79;20155;-74
2021/01/12 21:15:36;;;;;;;17.90;11.08;;;;;;;-0.34;77.48;96876.11;1785867;80;21113;-74
2021/01/12 21:18:06;;;;;;;19.82;8.13;;;;;;;-0.35;77.28;96877.93;1755406;80;21102;-74
2021/01/12 21:20:31;;;;;;;20.90;8.17;;;;;;;-0.29;76.92;96882.84;1785884;80;21126;-73
2021/01/12 21:22:57;;;;;;;11.10;5.72;;;;;;;-0.31;76.99;96872.95;1793646;78;21694;-74
2021/01/12 21:25:24;;;;;;;17.57;8.70;;;;;;;-0.31;77.08;96865.78;1797868;79;21557;-74
2021/01/12 21:27:50;;;;;;;16.07;9.35;;;;;;;-0.33;76.93;96860.42;1797879;78;21434;-74
2021/01/12 21:30:17;;;;;;;23.22;13.22;;;;;;;-0.33;76.76;96863.08;1797942;79;21132;-74
2021/01/12 21:32:49;;;;;;;72.35;39.90;;;;;;;-0.26;76.58;96858.92;1797688;78;21122;-73
2021/01/12 21:35:19;;;;;;;103.75;69.97;;;;;;;-0.24;76.32;96860.84;1797444;79;21482;-74
2021/01/12 21:37:45;;;;;;;19.65;11.43;;;;;;;-0.22;76.31;96860.07;1797318;78;21526;-74
2021/01/12 21:40:12;;;;;;;18.57;7.28;;;;;;;-0.21;75.98;96861.16;1797417;79;21490;-73
2021/01/12 21:42:40;;;;;;;45.70;19.42;;;;;;;-0.12;75.83;96865.58;1797254;78;21423;-73
2021/01/12 21:45:10;;;;;;;75.40;52.73;;;;;;;-0.18;75.85;96869.98;1797451;79;21078;-73
2021/01/12 21:47:36;;;;;;;21.48;11.03;;;;;;;-0.18;76.07;96861.20;1797208;78;21063;-73
2021/01/12 21:50:05;;;;;;;32.70;16.23;;;;;;;-0.19;76.02;96864.91;1797309;79;21129;-73
2021/01/12 21:52:31;;;;;;;19.57;9.98;;;;;;;-0.21;76.02;96863.82;1796065;78;21050;-74
2021/01/12 21:54:57;;;;;;;24.82;13.20;;;;;;;-0.22;76.29;96858.73;1797273;79;21358;-73
2021/01/12 21:57:24;;;;;;;26.20;13.00;;;;;;;-0.25;76.21;96856.04;1797218;78;21479;-74
2021/01/12 21:59:50;;;;;;;22.07;12.98;;;;;;;-0.28;76.62;96855.17;1797334;79;21141;-74
2021/01/12 22:02:16;;;;;;;75.08;34.80;;;;;;;-0.27;76.65;96854.64;1797147;78;21015;-74
2021/01/12 22:04:43;;;;;;;34.25;17.67;;;;;;;-0.27;76.50;96852.78;1797297;79;21121;-74
2021/01/12 22:07:09;;;;;;;55.10;24.20;;;;;;;-0.30;76.55;96851.42;1797260;78;21198;-74
2021/01/12 22:09:35;;;;;;;28.45;13.85;;;;;;;-0.29;76.53;96844.23;1797303;79;21137;-74
2021/01/12 22:12:01;;;;;;;23.22;12.78;;;;;;;-0.25;76.56;96842.73;1797230;79;21542;-74